EGNV Airport Information

Runway Information
Runway 05 Length 7516 ft width 151 ft
Elevation 115 ft Threshold 0 ft Heading 48
Runway 23 Length 7516 ft Width 151 ft
Elevation 116 ft Threshold 0 ft Heading 228
Airport Frequencies
Type ATIS Name ATIS Frequency 132.375 MHZ
Type RADAR Name Durham Rad Frequency 118.85 MHZ
Type TWR Name Durham Tow Frequency 119.8 MHZ
Airport Navaids
Airport Weather Information & NOTAM
ADDS - METARS form results

(1944 UTC 24 May 2022)
Data provider http://aviationweather.gov/metar/data/
 
METAR text: EGNV 241920Z 24013KT CAVOK 13/06 Q1005
Conditions at: EGNV (TEES-SIDE , GB) observed 1920 UTC 24 May 2022
Temperature: 13.0°C (55°F)
Dewpoint: 6.0°C (43°F) [RH = 62%]
Pressure (altimeter): 29.68 inches Hg (1005.0 mb)
Winds: from the WSW (240 degrees) at 15 MPH (13 knots; 6.7 m/s)
Visibility: 6 or more miles (10+ km)
Ceiling: ceiling and visibility are OK
Clouds: unknown
Weather: no significant weather observed at this time

METAR text: EGNV 241850Z 25015KT 9999 FEW040 14/06 Q1005
Conditions at: EGNV (TEES-SIDE , GB) observed 1850 UTC 24 May 2022
Temperature: 14.0°C (57°F)
Dewpoint: 6.0°C (43°F) [RH = 58%]
Pressure (altimeter): 29.68 inches Hg (1005.0 mb)
Winds: from the WSW (250 degrees) at 17 MPH (15 knots; 7.7 m/s)
Visibility: 6 or more miles (10+ km)
Ceiling: at least 12,000 feet AGL
Clouds: few clouds at 4000 feet AGL
Weather: no significant weather observed at this time

Forecast for: EGNV (TEES-SIDE , GB)
Text: TAF EGNV 241704Z 2418/2421 26010KT 9999 FEW035 SCT045
Forecast period: 1800 to 2100 UTC 24 May 2022
Forecast type: FROM: standard forecast or significant change
Winds: from the W (260 degrees) at 12 MPH (10 knots; 5.1 m/s)
Visibility: 6 or more miles (10+ km)
Ceiling: at least 12,000 feet AGL
Clouds: few clouds at 3500 feet AGL
scattered clouds at 4500 feet AGL
Weather: no significant weather forecast for this period
Text: TEMPO 2418/2420 6000 SHRA
Forecast period: 1800 to 2000 UTC 24 May 2022
Forecast type: TEMPORARY: The following changes expected for less than half the time period
Visibility: 4 miles (6 km)
Ceiling: unknown
Clouds: missing
Weather: SHRA  (rain showers)
Text: PROB30
Forecast period: 1800 to 2000 UTC 24 May 2022
Forecast type: TEMPORARY: The following changes expected for less than half the time period
Winds: from the NW (320 degrees) at 17 MPH (15 knots; 7.7 m/s)
gusting to 29 MPH (25 knots; 12.9 m/s)
Visibility: 1.86 miles (2.99 km)
Ceiling: unknown
Clouds: missing
Weather: +SHRA TSRA TSGS  (heavy rain showers, rain associated with thunderstorm(s), small hail or graupel associated with thunderstorm(s))